createdAt,value
2019-01-17T00:02:22.821Z,5.53
2019-01-17T00:05:51.771Z,5.54
2019-01-17T00:09:02.213Z,5.38
2019-01-17T00:12:23.871Z,5.31
2019-01-17T00:15:49.753Z,5.27
2019-01-17T00:19:11.385Z,5.17
2019-01-17T00:22:52.722Z,5.25
2019-01-17T00:26:21.403Z,5.28
2019-01-17T00:29:53.396Z,5.26
2019-01-17T00:33:14.673Z,5.29
2019-01-17T00:36:43.366Z,5.34
2019-01-17T00:40:05.179Z,5.42
2019-01-17T00:43:30.890Z,5.28
2019-01-17T00:46:56.541Z,5.38
2019-01-17T00:50:18.778Z,5.42
2019-01-17T00:53:40.903Z,5.39
2019-01-17T00:57:00.001Z,5.43
2019-01-17T01:00:12.993Z,5.30
2019-01-17T01:03:25.835Z,5.42
2019-01-17T01:07:03.874Z,5.33
2019-01-17T01:10:41.234Z,5.32
2019-01-17T01:14:16.448Z,5.39
2019-01-17T01:17:27.022Z,5.25
2019-01-17T01:20:48.025Z,5.37
2019-01-17T01:24:23.234Z,5.39
2019-01-17T01:27:45.933Z,5.37
2019-01-17T01:31:07.737Z,5.42
2019-01-17T01:34:29.521Z,5.33
2019-01-17T01:37:51.102Z,5.13
2019-01-17T01:41:06.503Z,5.04
2019-01-17T01:44:28.251Z,5.04
2019-01-17T01:47:42.174Z,5.09
2019-01-17T01:50:58.178Z,4.87
2019-01-17T01:54:02.009Z,4.82
2019-01-17T01:57:05.950Z,4.70
2019-01-17T02:00:10.665Z,4.65
2019-01-17T02:03:14.477Z,4.61
2019-01-17T02:06:18.301Z,4.68
2019-01-17T02:09:22.287Z,4.73
2019-01-17T02:12:26.191Z,4.71
2019-01-17T02:15:30.275Z,4.78
2019-01-17T02:18:34.074Z,4.88
2019-01-17T02:21:38.073Z,5.04
2019-01-17T02:24:41.882Z,5.18
2019-01-17T02:27:45.740Z,5.13
2019-01-17T02:30:49.703Z,4.93
2019-01-17T02:33:53.534Z,4.93
2019-01-17T02:36:57.349Z,4.98
2019-01-17T02:40:01.265Z,4.90
2019-01-17T02:43:05.138Z,4.90
2019-01-17T02:46:09.046Z,4.86
2019-01-17T02:49:12.860Z,4.87
2019-01-17T02:52:16.681Z,4.89
2019-01-17T02:55:20.472Z,4.86
2019-01-17T02:58:24.307Z,4.90
2019-01-17T03:01:28.291Z,4.83
2019-01-17T03:04:32.085Z,4.95
2019-01-17T03:07:36.271Z,5.05
2019-01-17T03:10:40.172Z,5.04
2019-01-17T03:13:44.016Z,4.89
2019-01-17T03:16:47.986Z,4.88
2019-01-17T03:19:51.881Z,4.94
2019-01-17T03:22:55.808Z,4.96
2019-01-17T03:25:59.617Z,4.98
2019-01-17T03:29:03.504Z,5.00
2019-01-17T03:32:07.387Z,5.12
2019-01-17T03:35:11.552Z,5.04
2019-01-17T03:38:15.429Z,5.06
2019-01-17T03:41:19.407Z,5.04
2019-01-17T03:44:23.323Z,4.91
2019-01-17T03:47:27.234Z,4.87
2019-01-17T03:50:31.181Z,4.89
2019-01-17T03:53:35.000Z,4.84
2019-01-17T03:56:38.907Z,4.84
2019-01-17T03:59:42.852Z,4.95
2019-01-17T04:02:46.827Z,5.12
2019-01-17T04:05:50.693Z,5.08
2019-01-17T04:08:54.581Z,5.20
2019-01-17T04:11:58.467Z,5.09
2019-01-17T04:15:02.517Z,5.03
2019-01-17T04:18:06.558Z,5.08
2019-01-17T04:21:10.481Z,5.26
2019-01-17T04:24:14.336Z,5.19
2019-01-17T04:27:18.324Z,5.36
2019-01-17T04:30:22.264Z,5.25
2019-01-17T04:33:26.147Z,5.19
2019-01-17T04:36:30.028Z,5.20
2019-01-17T04:39:33.871Z,5.19
2019-01-17T04:42:37.802Z,5.15
2019-01-17T04:45:41.607Z,4.98
2019-01-17T04:48:45.439Z,5.03
2019-01-17T04:51:49.307Z,5.00
2019-01-17T04:54:53.149Z,5.02
2019-01-17T04:57:57.015Z,4.98
2019-01-17T05:01:00.850Z,5.00
2019-01-17T05:04:04.867Z,4.91
2019-01-17T05:07:08.804Z,4.94
2019-01-17T05:10:13.314Z,4.88
2019-01-17T05:13:17.223Z,4.85
2019-01-17T05:16:21.177Z,4.80
2019-01-17T05:19:25.026Z,4.76
2019-01-17T05:22:28.846Z,4.95
2019-01-17T05:25:32.661Z,4.97
2019-01-17T05:28:36.558Z,5.06
2019-01-17T05:31:40.456Z,5.16
2019-01-17T05:34:44.330Z,5.12
2019-01-17T05:37:48.280Z,5.14
2019-01-17T05:40:52.086Z,5.27
2019-01-17T05:43:55.990Z,5.29
2019-01-17T05:46:59.981Z,5.28
2019-01-17T05:50:04.659Z,5.30
2019-01-17T05:53:08.475Z,5.41
2019-01-17T05:56:12.380Z,5.39
2019-01-17T05:59:16.169Z,5.51
2019-01-17T06:02:20.010Z,5.36
2019-01-17T06:05:23.822Z,5.45
2019-01-17T06:08:27.669Z,5.47
2019-01-17T06:11:31.473Z,5.41
2019-01-17T06:14:35.294Z,5.36
2019-01-17T06:17:39.256Z,5.26
2019-01-17T06:20:43.051Z,5.18
2019-01-17T06:23:46.904Z,5.29
2019-01-17T06:26:50.723Z,5.38
2019-01-17T06:29:54.534Z,5.38
2019-01-17T06:32:58.501Z,5.31
2019-01-17T06:36:02.486Z,5.47
2019-01-17T06:39:08.271Z,5.48
2019-01-17T06:42:12.114Z,5.39
2019-01-17T06:45:15.982Z,5.49
2019-01-17T06:48:19.876Z,5.62
2019-01-17T06:51:23.784Z,5.55
2019-01-17T06:54:27.768Z,5.67
2019-01-17T06:57:31.581Z,5.59
2019-01-17T07:00:35.471Z,5.56
2019-01-17T07:03:39.268Z,5.43
2019-01-17T07:06:43.236Z,5.26
2019-01-17T07:09:47.096Z,5.28
2019-01-17T07:12:50.990Z,5.36
2019-01-17T07:15:54.803Z,5.28
2019-01-17T07:18:58.720Z,5.23
2019-01-17T07:22:02.597Z,5.22
2019-01-17T07:25:07.437Z,5.11
2019-01-17T07:28:11.333Z,5.12
2019-01-17T07:31:15.292Z,4.97
2019-01-17T07:34:19.208Z,4.96
2019-01-17T07:37:23.684Z,5.00
2019-01-17T07:40:27.619Z,4.90
2019-01-17T07:43:31.674Z,4.90
2019-01-17T07:46:36.546Z,5.12
2019-01-17T07:49:40.547Z,5.20
2019-01-17T07:52:44.603Z,5.06
2019-01-17T07:55:48.491Z,5.16
2019-01-17T07:58:52.296Z,5.14
2019-01-17T08:01:56.170Z,5.14
2019-01-17T08:05:00.216Z,5.28
2019-01-17T08:08:04.388Z,5.15
2019-01-17T08:11:08.270Z,5.23
2019-01-17T08:14:12.269Z,5.26
2019-01-17T08:17:16.150Z,5.27
2019-01-17T08:20:22.436Z,5.29
2019-01-17T08:23:26.222Z,5.31
2019-01-17T08:26:30.108Z,5.17
2019-01-17T08:29:34.094Z,5.35
2019-01-17T08:32:37.955Z,5.42
2019-01-17T08:35:41.850Z,5.50
2019-01-17T08:38:45.726Z,5.45
2019-01-17T08:41:49.625Z,5.43
2019-01-17T08:44:53.899Z,5.63
2019-01-17T08:47:58.205Z,5.59
2019-01-17T08:51:02.292Z,5.60
2019-01-17T08:54:06.235Z,5.71
2019-01-17T08:57:10.238Z,5.71
2019-01-17T09:00:17.245Z,5.73
2019-01-17T09:03:21.126Z,5.63
2019-01-17T09:06:24.938Z,5.63
2019-01-17T09:09:28.830Z,5.54
2019-01-17T09:12:32.706Z,5.47
2019-01-17T09:15:36.850Z,5.57
2019-01-17T09:18:40.635Z,5.66
2019-01-17T09:21:44.525Z,5.75
2019-01-17T09:24:48.340Z,5.59
2019-01-17T09:27:52.315Z,5.47
2019-01-17T09:30:56.234Z,5.55
2019-01-17T09:34:00.404Z,5.61
2019-01-17T09:37:04.357Z,5.55
2019-01-17T09:40:10.933Z,5.47
2019-01-17T09:43:14.744Z,5.33
2019-01-17T09:46:18.679Z,5.30
2019-01-17T09:49:22.764Z,5.45
2019-01-17T09:52:27.288Z,5.46
2019-01-17T09:55:31.344Z,5.48
2019-01-17T09:58:35.151Z,5.49
2019-01-17T10:01:39.107Z,5.45
2019-01-17T10:04:43.396Z,5.39
2019-01-17T10:07:47.464Z,5.38
2019-01-17T10:10:51.865Z,5.32
2019-01-17T10:13:55.956Z,5.43
2019-01-17T10:17:34.934Z,5.56
2019-01-17T10:21:14.342Z,5.61
2019-01-17T10:24:48.209Z,5.43
2019-01-17T10:28:32.639Z,5.44
2019-01-17T10:32:00.764Z,5.43
2019-01-17T10:35:47.848Z,5.33
2019-01-17T10:39:38.633Z,5.25
2019-01-17T10:43:35.304Z,5.33
2019-01-17T10:47:41.555Z,5.36
2019-01-17T10:51:29.701Z,5.43
2019-01-17T10:55:29.194Z,5.58
2019-01-17T10:58:45.613Z,5.42
2019-01-17T11:02:54.622Z,5.44
2019-01-17T11:06:14.062Z,5.27
2019-01-17T11:09:51.718Z,5.13
2019-01-17T11:13:09.050Z,4.99
2019-01-17T11:16:38.453Z,4.92
2019-01-17T11:20:14.526Z,5.06
2019-01-17T11:23:47.993Z,5.25
2019-01-17T11:27:34.811Z,5.43
2019-01-17T11:30:59.411Z,5.58
2019-01-17T11:34:19.052Z,5.77
2019-01-17T11:38:05.864Z,5.80
2019-01-17T11:41:25.957Z,5.72
2019-01-17T11:45:02.502Z,5.68
2019-01-17T11:48:59.246Z,5.55
2019-01-17T11:52:52.166Z,5.47
2019-01-17T11:56:51.938Z,5.53
2019-01-17T12:00:45.239Z,5.43
2019-01-17T12:04:09.032Z,5.47
2019-01-17T12:07:17.216Z,5.47
2019-01-17T12:10:21.272Z,5.36
2019-01-17T12:13:25.149Z,5.30
2019-01-17T12:16:29.076Z,5.38
2019-01-17T12:19:32.950Z,5.37
2019-01-17T12:22:36.837Z,5.47
2019-01-17T12:25:40.758Z,5.36
2019-01-17T12:28:44.558Z,5.32
2019-01-17T12:31:48.482Z,5.37
2019-01-17T12:34:52.380Z,5.43
2019-01-17T12:37:56.185Z,5.39
2019-01-17T12:41:00.021Z,5.43
2019-01-17T12:44:04.071Z,5.40
2019-01-17T12:47:08.031Z,5.38
2019-01-17T12:50:15.802Z,5.41
2019-01-17T12:53:19.598Z,5.41
2019-01-17T12:56:23.500Z,5.36
2019-01-17T12:59:27.328Z,5.46
2019-01-17T13:02:31.222Z,5.40
2019-01-17T13:05:35.196Z,5.30
2019-01-17T13:08:39.067Z,5.43
2019-01-17T13:11:43.064Z,5.46
2019-01-17T13:14:46.876Z,5.45
2019-01-17T13:17:50.772Z,5.30
2019-01-17T13:20:54.573Z,5.28
2019-01-17T13:23:58.398Z,5.28
2019-01-17T13:27:02.220Z,5.29
2019-01-17T13:30:10.189Z,5.30
2019-01-17T13:33:14.076Z,5.19
2019-01-17T13:36:17.878Z,5.28
2019-01-17T13:39:21.781Z,5.23
2019-01-17T13:42:25.954Z,5.29
2019-01-17T13:45:30.717Z,5.30
2019-01-17T13:48:34.599Z,5.43
2019-01-17T13:51:38.605Z,5.44
2019-01-17T13:54:42.554Z,5.43
2019-01-17T13:57:46.531Z,5.30
2019-01-17T14:00:50.441Z,5.32
2019-01-17T14:03:54.279Z,5.06
2019-01-17T14:06:58.090Z,4.89
2019-01-17T14:10:02.028Z,4.82
2019-01-17T14:13:05.827Z,4.74
2019-01-17T14:16:09.939Z,4.81
2019-01-17T14:19:14.070Z,4.93
2019-01-17T14:22:18.357Z,4.87
2019-01-17T14:25:22.251Z,4.78
2019-01-17T14:28:26.171Z,4.69
2019-01-17T14:31:30.255Z,4.49
2019-01-17T14:34:34.163Z,4.46
2019-01-17T14:37:38.043Z,4.51
2019-01-17T14:40:41.954Z,4.48
2019-01-17T14:43:46.143Z,4.56
2019-01-17T14:46:50.125Z,4.49
2019-01-17T14:49:53.999Z,4.52
2019-01-17T14:52:57.922Z,4.55
2019-01-17T14:56:01.881Z,4.65
2019-01-17T14:59:05.701Z,4.67
2019-01-17T15:02:09.634Z,4.64
2019-01-17T15:05:13.702Z,4.66
2019-01-17T15:08:17.596Z,4.55
2019-01-17T15:11:21.481Z,4.52
2019-01-17T15:14:25.290Z,4.43
2019-01-17T15:17:29.563Z,4.29
2019-01-17T15:20:33.540Z,4.31
2019-01-17T15:23:37.360Z,4.24
2019-01-17T15:26:41.269Z,4.30
2019-01-17T15:29:45.386Z,4.18
2019-01-17T15:32:49.823Z,4.15
2019-01-17T15:35:54.182Z,4.19
2019-01-17T15:38:58.002Z,4.14
2019-01-17T15:42:01.925Z,4.14
2019-01-17T15:45:06.695Z,4.04
2019-01-17T15:48:10.520Z,4.00
2019-01-17T15:51:14.403Z,4.03
2019-01-17T15:54:18.303Z,3.98
2019-01-17T15:57:22.266Z,4.09
2019-01-17T16:00:31.768Z,4.13
2019-01-17T16:03:35.694Z,4.07
2019-01-17T16:06:39.601Z,4.08
2019-01-17T16:09:43.907Z,4.04
2019-01-17T16:12:47.855Z,3.95
2019-01-17T16:15:51.676Z,3.98
2019-01-17T16:18:55.581Z,3.90
2019-01-17T16:21:59.643Z,3.90
2019-01-17T16:25:06.062Z,3.95
2019-01-17T16:28:09.888Z,3.94
2019-01-17T16:31:13.687Z,4.05
2019-01-17T16:34:17.585Z,4.01
2019-01-17T16:37:21.870Z,3.53
2019-01-17T16:40:25.908Z,3.26
2019-01-17T16:43:30.213Z,3.12
2019-01-17T16:46:34.505Z,3.02
2019-01-17T16:49:38.594Z,2.80
2019-01-17T16:52:42.879Z,2.36
2019-01-17T16:55:47.172Z,2.24
2019-01-17T16:58:51.242Z,2.20
2019-01-17T17:01:55.518Z,2.10
2019-01-17T17:04:59.309Z,1.96
2019-01-17T17:08:03.663Z,1.87
2019-01-17T17:11:07.959Z,1.84
2019-01-17T17:14:12.089Z,1.81
2019-01-17T17:17:16.377Z,1.81
2019-01-17T17:20:21.266Z,1.78
2019-01-17T17:23:25.210Z,1.75
2019-01-17T17:26:29.118Z,1.66
2019-01-17T17:29:32.913Z,1.60
2019-01-17T17:32:36.779Z,1.63
2019-01-17T17:35:40.639Z,1.55
2019-01-17T17:38:44.440Z,1.57
2019-01-17T17:41:48.378Z,1.46
2019-01-17T17:44:52.455Z,1.37
2019-01-17T17:47:58.139Z,1.36
2019-01-17T17:51:02.115Z,1.33
2019-01-17T17:54:06.078Z,1.27
2019-01-17T17:57:10.163Z,1.27
2019-01-17T18:00:22.165Z,1.24
2019-01-17T18:03:26.229Z,1.21
2019-01-17T18:06:30.093Z,1.21
2019-01-17T18:09:34.172Z,1.23
2019-01-17T18:12:38.737Z,1.14
2019-01-17T18:15:42.839Z,1.23
2019-01-17T18:18:46.999Z,1.19
2019-01-17T18:21:51.057Z,1.16
2019-01-17T18:24:54.876Z,1.07
2019-01-17T18:27:58.795Z,0.83
2019-01-17T18:31:02.679Z,0.73
2019-01-17T18:34:06.658Z,0.70
2019-01-17T18:37:10.501Z,0.67
2019-01-17T18:40:15.871Z,0.79
2019-01-17T18:43:20.158Z,0.73
2019-01-17T18:46:24.697Z,0.85
2019-01-17T18:49:28.626Z,0.90
2019-01-17T18:52:32.696Z,0.84
2019-01-17T18:55:37.162Z,0.83
2019-01-17T18:58:41.139Z,0.86
2019-01-17T19:01:45.325Z,0.79
2019-01-17T19:04:49.191Z,0.68
2019-01-17T19:07:53.175Z,0.79
2019-01-17T19:10:57.151Z,0.80
2019-01-17T19:14:01.047Z,0.82
2019-01-17T19:17:05.029Z,0.84
2019-01-17T19:20:11.309Z,0.77
2019-01-17T19:23:15.118Z,0.79
2019-01-17T19:26:18.935Z,0.78
2019-01-17T19:29:22.899Z,0.69
2019-01-17T19:32:26.779Z,0.75
2019-01-17T19:35:30.826Z,0.71
2019-01-17T19:38:34.716Z,0.65
2019-01-17T19:41:38.658Z,0.70
2019-01-17T19:44:42.648Z,0.71
2019-01-17T19:47:46.613Z,0.75
2019-01-17T19:50:50.487Z,0.76
2019-01-17T19:53:54.484Z,0.68
2019-01-17T19:56:58.391Z,0.52
2019-01-17T20:00:02.380Z,0.62
2019-01-17T20:03:06.680Z,0.58
2019-01-17T20:06:10.647Z,0.47
2019-01-17T20:09:16.505Z,0.50
2019-01-17T20:12:20.482Z,0.53
2019-01-17T20:15:24.490Z,0.61
2019-01-17T20:18:28.442Z,0.61
2019-01-17T20:21:32.307Z,0.45
2019-01-17T20:24:36.204Z,0.59
2019-01-17T20:27:40.147Z,0.66
2019-01-17T20:30:44.887Z,0.75
2019-01-17T20:33:48.936Z,0.50
2019-01-17T20:36:52.854Z,0.57
2019-01-17T20:39:56.819Z,0.61
2019-01-17T20:43:00.784Z,0.62
2019-01-17T20:46:04.749Z,0.56
2019-01-17T20:49:08.533Z,0.58
2019-01-17T20:52:12.429Z,0.61
2019-01-17T20:55:16.412Z,0.46
2019-01-17T20:58:20.411Z,0.41
2019-01-17T21:01:42.322Z,0.33
2019-01-17T21:04:46.199Z,0.33
2019-01-17T21:07:50.071Z,0.32
2019-01-17T21:10:53.950Z,0.28
2019-01-17T21:13:57.841Z,0.27
2019-01-17T21:17:01.725Z,0.27
2019-01-17T21:20:06.345Z,0.25
2019-01-17T21:23:10.178Z,0.36
2019-01-17T21:26:14.051Z,0.37
2019-01-17T21:29:17.963Z,0.26
2019-01-17T21:32:21.814Z,0.27
2019-01-17T21:35:25.734Z,0.17
2019-01-17T21:38:29.584Z,0.11
2019-01-17T21:41:33.467Z,0.15
2019-01-17T21:44:37.322Z,0.18
2019-01-17T21:47:41.385Z,0.25
2019-01-17T21:50:45.242Z,0.15
2019-01-17T21:53:49.154Z,0.11
2019-01-17T21:56:53.029Z,0.12
2019-01-17T21:59:56.928Z,0.26
2019-01-17T22:03:00.711Z,0.19
2019-01-17T22:06:04.860Z,-0.02
2019-01-17T22:09:08.946Z,-0.04
2019-01-17T22:12:12.824Z,-0.15
2019-01-17T22:15:21.469Z,-0.23
2019-01-17T22:18:25.346Z,-0.05
2019-01-17T22:21:29.299Z,-0.05
2019-01-17T22:24:33.178Z,-0.11
2019-01-17T22:27:37.066Z,-0.04
2019-01-17T22:30:41.031Z,-0.10
2019-01-17T22:33:45.009Z,-0.15
2019-01-17T22:36:48.970Z,-0.07
2019-01-17T22:39:52.869Z,-0.11
2019-01-17T22:42:56.843Z,-0.23
2019-01-17T22:46:00.724Z,-0.20
2019-01-17T22:49:04.614Z,-0.21
2019-01-17T22:52:08.646Z,-0.20
2019-01-17T22:55:12.609Z,-0.19
2019-01-17T22:58:16.408Z,-0.23
2019-01-17T23:01:26.394Z,-0.27
2019-01-17T23:04:30.373Z,-0.26
2019-01-17T23:07:34.196Z,-0.35
2019-01-17T23:10:38.259Z,-0.31
2019-01-17T23:13:42.138Z,-0.33
2019-01-17T23:16:46.039Z,-0.39
2019-01-17T23:19:50.027Z,-0.41
2019-01-17T23:22:54.017Z,-0.43
2019-01-17T23:25:57.872Z,-0.46
2019-01-17T23:29:01.746Z,-0.50
2019-01-17T23:32:05.708Z,-0.57
2019-01-17T23:35:09.796Z,-0.60
2019-01-17T23:38:13.672Z,-0.56
2019-01-17T23:41:17.623Z,-0.55
2019-01-17T23:44:21.614Z,-0.56
2019-01-17T23:47:25.592Z,-0.52
2019-01-17T23:50:29.473Z,-0.46
2019-01-17T23:53:33.352Z,-0.47
2019-01-17T23:56:37.243Z,-0.55
2019-01-17T23:59:41.144Z,-0.58
